• Join FlightAware (Why Join?)
  • Login
  • US Flag 
01:28PM EDT


 

Airport Tracker/Info


-or-


 

Live Flight TrackerFlight Track Log ✈ CTL312 ✈ 26-Apr-2013 ✈ KBKL - KPTK

Flight Track Log - Related Links

Times and Time Zones

All times are in EDT time to prevent confusion due to time zone crossing. See the CTL312 flight status page for this flight to view local times or setup timezone preferences in your user account.

Time Position Orientation Groundspeed Altitude Reporting Facility
EDT Latitude Longitude Course Direction KTS MPH feet Rate Location/Type
09:57PM 41.5233 -81.6786 329° Northwest 117 135 1,000  Level Cleveland Center
09:58PM 41.5481 -81.6983 329° Northwest 156 180 1,800 660 Climbing Cleveland Center
09:59PM 41.5767 -81.7461 309° West 172 198 2,300 540 Climbing Cleveland Center
10:00PM 41.6056 -81.7939 309° West 170 196 3,000 660 Climbing Cleveland Center
10:01PM 41.6214 -81.8525 290° West 165 190 3,700 600 Climbing Cleveland Center
10:02PM 41.6417 -81.9139 294° West 163 188 4,300 540 Climbing Cleveland Center
10:03PM 41.6575 -81.9728 290° West 167 192 4,900 540 Climbing Cleveland Center
10:04PM 41.6756 -82.0286 293° West 168 193 5,400 480 Climbing Cleveland Center
10:05PM 41.6958 -82.0819 297° West 165 190 5,900 300 Climbing Cleveland Center
10:06PM 41.7117 -82.1408 290° West 166 191 6,100 60 Climbing Cleveland Center
10:06PM 41.7197 -82.1633 296° West 165 190 6,000 -180 Descending Cleveland Center
10:07PM 41.7417 -82.2333 293° West 170 196 5,900 -60 Descending Cleveland Center
10:08PM 41.7683 -82.2731 312° West 167 192 5,900 60 Level Cleveland Center
10:10PM 41.8153 -82.3300 318° Northwest 166 191 6,100  Climbing Cleveland Center
10:11PM 41.8542 -82.3728 321° Northwest 168 193 6,000 -60 Descending Cleveland Center
10:12PM 41.8850 -82.4128 316° Northwest 169 194 6,000  Level Cleveland Center
10:13PM 41.9239 -82.4558 321° Northwest 169 194 6,000  Level Cleveland Center
10:14PM 41.9564 -82.4958 318° Northwest 168 193 6,100  Climbing Cleveland Center
10:15PM 41.9975 -82.5361 324° Northwest 168 193 6,000 -60 Descending Cleveland Center
10:16PM 42.0322 -82.5764 319° Northwest 172 198 6,000  Level Cleveland Center
10:16PM 42.0547 -82.6050 317° Northwest 172 198 6,000  Level Cleveland Center
10:18PM 42.0978 -82.6483 323° Northwest 170 196 6,100  Climbing Cleveland Center
10:19PM 42.1386 -82.6944 320° Northwest 170 196 6,100 -60 Level Cleveland Center
10:20PM 42.1733 -82.7319 321° Northwest 169 194 6,000  Descending Cleveland Center
10:21PM 42.2100 -82.7753 319° Northwest 168 193 6,100  Climbing Cleveland Center
10:22PM 42.2447 -82.8131 321° Northwest 168 193 6,100 -60 Level Cleveland Center
10:23PM 42.2772 -82.8536 317° Northwest 165 190 6,000 -60 Descending Cleveland Center
10:24PM 42.3139 -82.8942 321° Northwest 163 188 6,000  Level Cleveland Center
10:25PM 42.3444 -82.9344 316° Northwest 162 186 6,000  Level Cleveland Center
10:26PM 42.3811 -82.9781 319° Northwest 159 183 6,000  Level Cleveland Center
10:27PM 42.4197 -83.0217 320° Northwest 160 184 6,000 -180 Level Cleveland Center
10:28PM 42.4522 -83.0597 319° Northwest 163 188 5,700 -660 Descending Cleveland Center
10:29PM 42.4950 -83.1119 318° Northwest 181 208 4,700 -840 Descending Cleveland Center
10:30PM 42.5294 -83.1583 315° West 183 211 4,100 -600 Descending Cleveland Center
10:31PM 42.5656 -83.2164 310° West 177 204 3,500 -540 Descending Cleveland Center
10:32PM 42.5894 -83.2597 307° West 168 193 3,100 -480 Descending Cleveland Center
10:33PM 42.6178 -83.3031 312° West 168 193 2,700 -480 Descending Cleveland Center
10:34PM 42.6497 -83.3611 307° West 156 180 2,200 -420 Descending Cleveland Center
10:36PM 42.6500 -83.4167 304° West  Level FlightAware Approximate
10:43PM 42.6656 -83.4205 304° West  Level Estimated
10:44PM 42.6656 -83.4205 304° West  Level Estimated